createdAt,value
2022-08-17T00:00:34.472Z,100039.19
2022-08-17T00:03:19.760Z,100039.53
2022-08-17T00:06:01.546Z,100049.00
2022-08-17T00:08:32.557Z,100049.22
2022-08-17T00:11:00.829Z,100053.84
2022-08-17T00:13:32.407Z,100052.38
2022-08-17T00:16:03.263Z,100054.88
2022-08-17T00:19:02.139Z,100059.03
2022-08-17T00:21:23.808Z,100061.72
2022-08-17T00:23:53.853Z,100056.63
2022-08-17T00:26:34.722Z,100062.09
2022-08-17T00:29:09.286Z,100061.06
2022-08-17T00:31:37.802Z,100061.72
2022-08-17T00:34:06.574Z,100068.69
2022-08-17T00:36:35.184Z,100067.22
2022-08-17T00:39:03.010Z,100065.97
2022-08-17T00:41:31.648Z,100065.97
2022-08-17T00:44:06.285Z,100065.13
2022-08-17T00:46:39.365Z,100059.44
2022-08-17T00:49:08.368Z,100070.03
2022-08-17T00:51:48.936Z,100063.75
2022-08-17T00:54:25.654Z,100062.72
2022-08-17T00:57:30.170Z,100069.25
2022-08-17T01:00:17.073Z,100063.31
2022-08-17T01:02:45.920Z,100059.91
2022-08-17T01:05:20.689Z,100056.56
2022-08-17T01:07:50.953Z,100052.97
2022-08-17T01:10:58.730Z,100062.19
2022-08-17T01:13:11.355Z,100049.53
2022-08-17T01:15:42.152Z,100048.84
2022-08-17T01:18:14.452Z,100054.34
2022-08-17T01:20:48.113Z,100047.63
2022-08-17T01:23:20.459Z,100041.31
2022-08-17T01:25:53.411Z,100046.56
2022-08-17T01:28:33.231Z,100038.75
2022-08-17T01:31:10.387Z,100040.84
2022-08-17T01:33:38.568Z,100035.56
2022-08-17T01:36:07.595Z,100027.13
2022-08-17T01:38:37.465Z,100032.16
2022-08-17T01:41:14.396Z,100038.22
2022-08-17T01:43:45.853Z,100038.81
2022-08-17T01:46:22.170Z,100039.81
2022-08-17T01:48:51.332Z,100033.47
2022-08-17T01:51:19.923Z,100026.03
2022-08-17T01:53:55.459Z,100027.69
2022-08-17T01:56:25.310Z,100029.34
2022-08-17T01:58:52.870Z,100029.34
2022-08-17T02:01:23.634Z,100032.06
2022-08-17T02:03:59.172Z,100019.84
2022-08-17T02:06:53.715Z,100019.56
2022-08-17T02:09:25.489Z,100011.97
2022-08-17T02:11:54.835Z,100018.69
2022-08-17T02:14:25.045Z,100010.47
2022-08-17T02:16:53.498Z,100015.94
2022-08-17T02:19:22.026Z,100016.09
2022-08-17T02:21:53.089Z,100017.94
2022-08-17T02:24:58.894Z,100010.50
2022-08-17T02:27:15.553Z,100020.81
2022-08-17T02:29:43.066Z,100019.09
2022-08-17T02:32:20.666Z,100009.03
2022-08-17T02:34:53.360Z,100014.94
2022-08-17T02:37:21.062Z,100018.13
2022-08-17T02:39:48.611Z,100009.91
2022-08-17T02:42:16.203Z,100021.69
2022-08-17T02:44:43.728Z,100019.19
2022-08-17T02:47:12.599Z,100024.63
2022-08-17T02:49:46.353Z,100013.50
2022-08-17T02:52:43.217Z,100021.56
2022-08-17T02:55:14.317Z,100012.88
2022-08-17T02:57:41.866Z,100011.53
2022-08-17T03:00:29.174Z,100014.66
2022-08-17T03:02:57.551Z,100014.03
2022-08-17T03:05:27.530Z,100000.28
2022-08-17T03:07:55.947Z,100012.34
2022-08-17T03:10:25.688Z,100002.31
2022-08-17T03:12:53.995Z,100012.47
2022-08-17T03:15:29.259Z,100012.00
2022-08-17T03:17:57.927Z,100010.09
2022-08-17T03:20:26.781Z,100006.31
2022-08-17T03:23:01.776Z,99999.16
2022-08-17T03:25:35.819Z,100008.44
2022-08-17T03:28:05.581Z,100009.56
2022-08-17T03:30:34.389Z,100008.06
2022-08-17T03:33:05.967Z,100010.88
2022-08-17T03:35:35.009Z,100008.03
2022-08-17T03:38:04.229Z,100007.59
2022-08-17T03:40:55.435Z,100015.44
2022-08-17T03:43:21.131Z,100006.94
2022-08-17T03:46:11.017Z,100012.97
2022-08-17T03:49:13.573Z,100008.94
2022-08-17T03:52:03.839Z,100007.50
2022-08-17T03:54:49.793Z,100004.53
2022-08-17T03:57:17.318Z,100003.75
2022-08-17T03:59:45.311Z,99999.63
2022-08-17T04:02:18.312Z,100005.31
2022-08-17T04:04:46.784Z,99995.56
2022-08-17T04:07:14.384Z,100009.41
2022-08-17T04:09:43.039Z,99996.59
2022-08-17T04:12:11.727Z,100004.00
2022-08-17T04:14:52.568Z,99996.53
2022-08-17T04:17:27.574Z,99994.00
2022-08-17T04:19:56.018Z,99993.44
2022-08-17T04:22:32.765Z,100006.81
2022-08-17T04:25:24.395Z,100006.56
2022-08-17T04:27:52.399Z,100008.50
2022-08-17T04:30:20.047Z,100006.53
2022-08-17T04:33:00.818Z,100006.00
2022-08-17T04:35:38.721Z,100002.63
2022-08-17T04:38:07.809Z,99997.66
2022-08-17T04:41:07.340Z,100001.53
2022-08-17T04:43:35.860Z,99994.28
2022-08-17T04:46:19.339Z,99991.97
2022-08-17T04:48:49.714Z,99995.84
2022-08-17T04:51:20.733Z,99996.41
2022-08-17T04:53:54.375Z,99990.53
2022-08-17T04:56:25.208Z,99996.97
2022-08-17T04:58:55.224Z,100000.41
2022-08-17T05:01:25.018Z,99996.38
2022-08-17T05:03:54.407Z,99996.38
2022-08-17T05:06:25.631Z,100000.06
2022-08-17T05:08:53.651Z,99998.38
2022-08-17T05:11:25.610Z,100001.34
2022-08-17T05:13:53.813Z,99992.03
2022-08-17T05:16:22.810Z,99997.56
2022-08-17T05:18:50.601Z,100000.06
2022-08-17T05:21:18.696Z,99993.22
2022-08-17T05:23:50.320Z,99995.75
2022-08-17T05:26:26.963Z,99992.81
2022-08-17T05:28:59.629Z,99986.28
2022-08-17T05:31:29.616Z,99996.31
2022-08-17T05:33:57.467Z,99984.06
2022-08-17T05:36:41.902Z,99991.16
2022-08-17T05:39:15.930Z,99994.38
2022-08-17T05:41:48.393Z,99995.75
2022-08-17T05:44:16.620Z,99992.44
2022-08-17T05:46:50.718Z,99991.56
2022-08-17T05:49:28.063Z,99988.47
2022-08-17T05:52:18.834Z,99989.91
2022-08-17T05:55:06.430Z,99999.75
2022-08-17T05:58:00.229Z,99993.03
2022-08-17T06:00:51.007Z,99993.28
2022-08-17T06:03:40.061Z,99999.63
2022-08-17T06:06:31.402Z,99983.59
2022-08-17T06:09:33.417Z,99989.97
2022-08-17T06:12:24.658Z,99984.81
2022-08-17T06:15:01.446Z,99985.34
2022-08-17T06:17:29.138Z,99981.59
2022-08-17T06:20:04.347Z,99974.41
2022-08-17T06:22:36.724Z,99973.41
2022-08-17T06:25:19.515Z,99974.69
2022-08-17T06:27:55.989Z,99970.28
2022-08-17T06:30:26.770Z,99968.94
2022-08-17T06:32:59.651Z,99969.09
2022-08-17T06:35:38.019Z,99972.44
2022-08-17T06:38:38.886Z,99972.13
2022-08-17T06:41:45.344Z,99971.19
2022-08-17T06:44:43.563Z,99966.44
2022-08-17T06:47:33.001Z,99963.78
2022-08-17T06:50:20.654Z,99970.59
2022-08-17T06:53:03.117Z,99971.66
2022-08-17T06:55:52.751Z,99965.91
2022-08-17T06:58:29.573Z,99977.88
2022-08-17T07:01:01.187Z,99970.91
2022-08-17T07:03:44.446Z,99970.38
2022-08-17T07:06:16.666Z,99970.22
2022-08-17T07:09:11.122Z,99967.34
2022-08-17T07:11:54.309Z,99957.34
2022-08-17T07:14:57.057Z,99967.25
2022-08-17T07:17:46.823Z,99963.91
2022-08-17T07:20:22.819Z,99958.41
2022-08-17T07:23:15.349Z,99958.56
2022-08-17T07:25:43.344Z,99954.44
2022-08-17T07:28:13.714Z,99962.47
2022-08-17T07:30:49.420Z,99960.22
2022-08-17T07:33:30.117Z,99953.38
2022-08-17T07:35:59.458Z,99964.97
2022-08-17T07:38:44.802Z,99950.84
2022-08-17T07:41:26.634Z,99959.69
2022-08-17T07:51:43.192Z,99949.91
2022-08-17T07:57:36.442Z,99953.44
2022-08-17T08:00:16.304Z,99947.34
2022-08-17T08:03:00.751Z,99952.00
2022-08-17T08:05:48.704Z,99947.72
2022-08-17T08:08:26.210Z,99949.94
2022-08-17T08:14:31.194Z,99941.53
2022-08-17T08:17:27.870Z,99939.25
2022-08-17T08:20:00.876Z,99938.53
2022-08-17T08:23:12.945Z,99945.44
2022-08-17T08:26:21.323Z,99932.00
2022-08-17T08:32:21.517Z,99921.13
2022-08-17T08:35:09.649Z,99919.88
2022-08-17T08:37:49.029Z,99918.94
2022-08-17T08:40:31.611Z,99917.47
2022-08-17T08:43:26.173Z,99913.72
2022-08-17T08:46:37.553Z,99912.38
2022-08-17T08:50:02.144Z,99908.47
2022-08-17T08:52:37.329Z,99909.03
2022-08-17T08:55:28.099Z,99911.22
2022-08-17T08:58:53.306Z,99904.69
2022-08-17T09:02:37.814Z,99912.03
2022-08-17T09:05:22.814Z,99913.28
2022-08-17T09:08:14.774Z,99909.16
2022-08-17T09:11:12.274Z,99907.25
2022-08-17T09:16:25.046Z,99909.16
2022-08-17T09:18:59.158Z,99901.50
2022-08-17T09:22:01.653Z,99898.63
2022-08-17T09:54:40.482Z,99909.50
2022-08-17T09:57:48.050Z,99908.34
2022-08-17T10:01:01.239Z,99901.31
2022-08-17T10:03:54.179Z,99898.22
2022-08-17T10:07:36.314Z,99896.25
2022-08-17T10:09:50.430Z,99898.06
2022-08-17T10:13:03.179Z,99893.41
2022-08-17T10:15:53.462Z,99894.81
2022-08-17T10:18:37.929Z,99901.81
2022-08-17T10:28:29.728Z,99907.00
2022-08-17T10:31:33.789Z,99902.72
2022-08-17T10:34:41.073Z,99907.63
2022-08-17T10:37:34.786Z,99905.91
2022-08-17T10:40:15.506Z,99903.69
2022-08-17T10:43:26.135Z,99903.16
2022-08-17T10:48:08.006Z,99899.41
2022-08-17T10:50:00.465Z,99900.13
2022-08-17T10:52:47.507Z,99899.84
2022-08-17T10:55:28.813Z,99900.53
2022-08-17T10:58:22.165Z,99902.88
2022-08-17T11:03:55.097Z,99899.63
2022-08-17T11:06:52.317Z,99897.34
2022-08-17T11:09:33.836Z,99891.41
2022-08-17T11:12:25.635Z,99895.00
2022-08-17T11:15:39.427Z,99885.56
2022-08-17T11:18:50.791Z,99890.91
2022-08-17T11:21:52.042Z,99886.28
2022-08-17T11:24:45.545Z,99883.97
2022-08-17T11:27:38.428Z,99878.94
2022-08-17T11:30:49.751Z,99866.94
2022-08-17T11:33:38.187Z,99867.88
2022-08-17T11:37:11.828Z,99853.44
2022-08-17T11:40:45.911Z,99861.63
2022-08-17T11:43:42.959Z,99864.00
2022-08-17T11:47:00.815Z,99862.03
2022-08-17T11:49:58.132Z,99862.56
2022-08-17T11:53:37.938Z,99859.84
2022-08-17T11:56:44.395Z,99865.75
2022-08-17T11:59:45.656Z,99859.94
2022-08-17T12:02:34.225Z,99857.91
2022-08-17T12:05:46.569Z,99848.56
2022-08-17T12:08:30.403Z,99847.03
2022-08-17T12:12:11.277Z,99848.31
2022-08-17T12:15:05.898Z,99853.78
2022-08-17T12:17:40.254Z,99846.56
2022-08-17T12:20:45.460Z,99847.31
2022-08-17T12:23:35.634Z,99842.03
2022-08-17T12:26:36.055Z,99840.88
2022-08-17T12:29:35.137Z,99845.97
2022-08-17T12:35:39.321Z,99846.63
2022-08-17T12:38:33.102Z,99834.91
2022-08-17T12:41:54.709Z,99839.94
2022-08-17T12:45:07.733Z,99832.16
2022-08-17T12:47:59.665Z,99841.84
2022-08-17T12:50:34.915Z,99837.91
2022-08-17T12:54:00.029Z,99835.41
2022-08-17T12:56:32.508Z,99837.03
2022-08-17T12:59:05.389Z,99822.09
2022-08-17T13:01:52.767Z,99836.56
2022-08-17T13:05:35.109Z,99840.53
2022-08-17T13:11:26.799Z,99829.13
2022-08-17T13:24:11.025Z,99850.00
2022-08-17T13:27:22.287Z,99844.16
2022-08-17T13:30:25.508Z,99833.28
2022-08-17T13:33:44.553Z,99840.56
2022-08-17T13:40:21.354Z,99847.22
2022-08-17T13:43:10.828Z,99849.19
2022-08-17T13:46:02.380Z,99848.59
2022-08-17T13:49:05.442Z,99854.75
2022-08-17T13:51:56.968Z,99857.25
2022-08-17T13:55:36.597Z,99855.88
2022-08-17T13:59:53.463Z,99854.47
2022-08-17T14:03:00.809Z,99855.28
2022-08-17T14:05:38.025Z,99855.75
2022-08-17T14:08:14.888Z,99870.41
2022-08-17T14:20:34.939Z,99866.91
2022-08-17T14:23:05.065Z,99864.31
2022-08-17T14:25:44.112Z,99871.91
2022-08-17T14:28:18.815Z,99879.72
2022-08-17T14:31:18.955Z,99876.38
2022-08-17T14:34:00.867Z,99875.00
2022-08-17T14:36:45.410Z,99874.72
2022-08-17T14:39:24.055Z,99874.47
2022-08-17T14:45:27.391Z,99863.72
2022-08-17T14:48:17.864Z,99867.91
2022-08-17T14:50:59.000Z,99861.53
2022-08-17T14:53:38.750Z,99867.41
2022-08-17T14:56:18.358Z,99857.16
2022-08-17T14:58:48.805Z,99852.16
2022-08-17T15:01:59.105Z,99842.94
2022-08-17T15:05:20.818Z,99840.34
2022-08-17T15:08:25.297Z,99840.22
2022-08-17T15:13:51.992Z,99842.97
2022-08-17T15:16:41.257Z,99840.72
2022-08-17T15:19:31.959Z,99843.50
2022-08-17T15:25:27.657Z,99839.69
2022-08-17T15:28:06.249Z,99838.16
2022-08-17T15:30:45.242Z,99852.78
2022-08-17T15:33:34.743Z,99857.97
2022-08-17T15:36:16.432Z,99865.44
2022-08-17T15:38:50.121Z,99860.00
2022-08-17T15:41:28.510Z,99870.88
2022-08-17T15:45:09.178Z,99878.41
2022-08-17T15:47:45.171Z,99877.94
2022-08-17T15:50:21.499Z,99877.38
2022-08-17T15:53:08.859Z,99878.16
2022-08-17T15:55:38.678Z,99879.16
2022-08-17T15:58:14.283Z,99887.34
2022-08-17T16:03:01.779Z,99875.03
2022-08-17T16:04:32.407Z,99873.81
2022-08-17T16:07:15.237Z,99879.47
2022-08-17T16:10:18.669Z,99874.00
2022-08-17T16:13:17.842Z,99877.50
2022-08-17T16:16:08.512Z,99875.31
2022-08-17T16:18:41.679Z,99874.72
2022-08-17T16:21:27.945Z,99879.69
2022-08-17T16:24:25.110Z,99889.38
2022-08-17T16:27:11.682Z,99890.59
2022-08-17T16:29:47.605Z,99888.31
2022-08-17T16:32:36.878Z,99884.56
2022-08-17T16:35:25.144Z,99900.00
2022-08-17T16:39:08.494Z,99894.88
2022-08-17T16:41:56.558Z,99900.94
2022-08-17T16:45:02.280Z,99902.09
2022-08-17T16:47:37.190Z,99902.38
2022-08-17T16:50:59.946Z,99896.38
2022-08-17T16:54:09.007Z,99902.34
2022-08-17T16:57:09.204Z,99907.53
2022-08-17T17:00:19.932Z,99915.41
2022-08-17T17:03:58.042Z,99905.25
2022-08-17T17:07:04.415Z,99912.56
2022-08-17T17:10:03.365Z,99907.41
2022-08-17T17:13:02.278Z,99905.75
2022-08-17T17:20:10.900Z,99909.56
2022-08-17T17:23:35.211Z,99909.91
2022-08-17T17:26:29.296Z,99921.41
2022-08-17T17:29:17.779Z,99922.09
2022-08-17T17:47:11.763Z,99925.13
2022-08-17T17:49:53.703Z,99923.66
2022-08-17T17:52:51.713Z,99936.50
2022-08-17T17:56:04.630Z,99920.91
2022-08-17T17:58:56.304Z,99931.50
2022-08-17T18:02:08.493Z,99919.97
2022-08-17T18:05:03.304Z,99917.94
2022-08-17T18:08:14.643Z,99912.50
2022-08-17T18:11:35.087Z,99915.69
2022-08-17T18:14:56.669Z,99918.69
2022-08-17T18:18:06.663Z,99911.47
2022-08-17T18:20:53.980Z,99913.34
2022-08-17T18:23:29.834Z,99906.41
2022-08-17T18:26:01.292Z,99917.47
2022-08-17T18:29:03.761Z,99910.28
2022-08-17T18:32:48.643Z,99913.94
2022-08-17T18:38:45.248Z,99918.84
2022-08-17T18:41:45.351Z,99925.69
2022-08-17T18:44:42.303Z,99925.47
2022-08-17T18:47:21.654Z,99920.41
2022-08-17T18:50:06.728Z,99923.59
2022-08-17T18:53:19.989Z,99926.16
2022-08-17T18:56:32.121Z,99925.78
2022-08-17T19:02:56.284Z,99920.09
2022-08-17T19:05:31.024Z,99917.66
2022-08-17T19:08:30.646Z,99913.31
2022-08-17T19:11:12.619Z,99911.97
2022-08-17T19:14:08.706Z,99918.00
2022-08-17T19:17:01.051Z,99916.94
2022-08-17T19:20:00.193Z,99916.03
2022-08-17T19:23:05.352Z,99926.50
2022-08-17T19:26:23.356Z,99930.59
2022-08-17T19:29:52.810Z,99927.03
2022-08-17T19:32:31.993Z,99924.88
2022-08-17T19:35:15.030Z,99927.66
2022-08-17T19:38:13.257Z,99926.75
2022-08-17T19:41:15.489Z,99930.22
2022-08-17T19:44:09.127Z,99927.72
2022-08-17T19:50:09.941Z,99932.25
2022-08-17T20:03:36.425Z,99925.97
2022-08-17T20:06:25.408Z,99928.31
2022-08-17T20:10:20.017Z,99925.13
2022-08-17T20:16:47.100Z,99915.22
2022-08-17T20:20:19.406Z,99909.75
2022-08-17T20:23:04.003Z,99915.00
2022-08-17T20:26:17.145Z,99913.97
2022-08-17T20:29:20.244Z,99926.16
2022-08-17T20:32:21.197Z,99916.50
2022-08-17T20:35:41.162Z,99924.28
2022-08-17T20:38:46.604Z,99925.75
2022-08-17T20:41:27.684Z,99925.72
2022-08-17T20:44:07.799Z,99922.75
2022-08-17T20:46:41.474Z,99920.66
2022-08-17T20:49:15.003Z,99921.91
2022-08-17T20:52:12.816Z,99922.53
2022-08-17T20:54:48.917Z,99920.00
2022-08-17T20:57:44.727Z,99922.97
2022-08-17T21:01:20.406Z,99922.53
2022-08-17T21:03:55.896Z,99925.28
2022-08-17T21:06:26.966Z,99923.78
2022-08-17T21:08:59.146Z,99925.69
2022-08-17T21:11:57.320Z,99929.66
2022-08-17T21:14:25.648Z,99922.28
2022-08-17T21:17:15.165Z,99922.06
2022-08-17T21:20:12.337Z,99937.41
2022-08-17T21:23:04.755Z,99926.69
2022-08-17T21:26:16.640Z,99919.75
2022-08-17T21:29:30.290Z,99920.59
2022-08-17T21:32:09.722Z,99922.03
2022-08-17T21:35:07.283Z,99917.59
2022-08-17T21:37:48.387Z,99918.25
2022-08-17T21:40:39.441Z,99916.78
2022-08-17T21:43:24.233Z,99899.31
2022-08-17T21:46:00.577Z,99905.84
2022-08-17T21:48:54.369Z,99908.41
2022-08-17T21:51:27.697Z,99912.00
2022-08-17T21:56:51.714Z,99905.47
2022-08-17T21:59:27.248Z,99909.06
2022-08-17T22:02:08.442Z,99913.69
2022-08-17T22:04:58.461Z,99912.00
2022-08-17T22:07:42.809Z,99912.00
2022-08-17T22:13:31.901Z,99905.69
2022-08-17T22:16:29.049Z,99909.47
2022-08-17T22:22:06.485Z,99902.28
2022-08-17T22:24:41.542Z,99897.44
2022-08-17T22:27:12.007Z,99899.78
2022-08-17T22:30:01.540Z,99898.31
2022-08-17T22:32:55.309Z,99903.13
2022-08-17T22:35:39.121Z,99905.69
2022-08-17T22:38:23.213Z,99898.09
2022-08-17T22:41:04.632Z,99909.88
2022-08-17T22:43:38.510Z,99905.47
2022-08-17T22:46:18.621Z,99910.94
2022-08-17T22:51:42.741Z,99917.28
2022-08-17T22:54:37.617Z,99920.84
2022-08-17T22:57:25.380Z,99924.19
2022-08-17T22:59:55.765Z,99922.94
2022-08-17T23:02:50.281Z,99916.19
2022-08-17T23:05:24.205Z,99917.84
2022-08-17T23:07:53.235Z,99920.97
2022-08-17T23:13:21.593Z,99922.44
2022-08-17T23:15:51.597Z,99919.47
2022-08-17T23:18:23.656Z,99925.59
2022-08-17T23:20:51.332Z,99922.97
2022-08-17T23:23:23.713Z,99923.34
2022-08-17T23:25:53.812Z,99923.09
2022-08-17T23:28:21.868Z,99921.78
2022-08-17T23:30:51.599Z,99916.06
2022-08-17T23:33:26.662Z,99914.56
2022-08-17T23:35:54.272Z,99917.53
2022-08-17T23:38:24.807Z,99923.06
2022-08-17T23:40:53.903Z,99922.44
2022-08-17T23:43:24.705Z,99915.91
2022-08-17T23:46:00.800Z,99917.19
2022-08-17T23:48:36.793Z,99921.38
2022-08-17T23:51:09.270Z,99928.09
2022-08-17T23:53:42.072Z,99931.44
2022-08-17T23:56:24.519Z,99924.69
2022-08-17T23:58:55.048Z,99927.38
